Time;durP1;ratioP1;P1;durP2;ratioP2;P2;SDS_P1;SDS_P2;PMS_P1;PMS_P2;Temp;Humidity;BMP_temperature;BMP_pressure;BME280_temperature;BME280_humidity;BME280_pressure;Samples;Min_cycle;Max_cycle;Signal;HPM_P1;HPM_P2
2021/05/17 00:00:28;;;;;;;5.88;3.95;;;11.40;99.90;;;;;;2064491;28;20030;-67
2021/05/17 00:01:31;;;;;;;4.05;3.35;;;11.40;99.90;;;;;;2064688;28;20537;-67
2021/05/17 00:02:32;;;;;;;4.45;3.55;;;11.40;99.90;;;;;;2063949;28;20096;-67
2021/05/17 00:03:35;;;;;;;4.22;3.80;;;11.40;99.90;;;;;;2064266;28;20359;-67
2021/05/17 00:04:36;;;;;;;3.75;3.42;;;11.40;99.90;;;;;;2064240;28;20378;-67
2021/05/17 00:05:37;;;;;;;5.60;3.40;;;11.40;99.90;;;;;;2062563;28;20023;-67
2021/05/17 00:06:38;;;;;;;6.30;3.67;;;11.50;99.90;;;;;;2061340;28;20069;-67
2021/05/17 00:07:39;;;;;;;3.85;3.55;;;11.40;99.90;;;;;;2071750;28;20063;-67
2021/05/17 00:08:40;;;;;;;3.83;3.40;;;11.40;99.90;;;;;;2070777;28;20109;-67
2021/05/17 00:09:41;;;;;;;4.72;3.70;;;11.40;99.90;;;;;;2064465;28;20046;-67
2021/05/17 00:10:42;;;;;;;3.70;3.33;;;11.40;99.90;;;;;;2064201;28;20027;-67
2021/05/17 00:11:43;;;;;;;6.35;4.28;;;11.40;99.90;;;;;;2064259;28;20461;-67
2021/05/17 00:12:43;;;;;;;6.43;4.10;;;11.50;99.90;;;;;;2062756;28;20031;-67
2021/05/17 00:13:44;;;;;;;4.85;3.63;;;11.40;99.90;;;;;;2064435;28;20077;-67
2021/05/17 00:14:45;;;;;;;3.95;3.55;;;11.40;99.90;;;;;;2064397;28;20379;-67
2021/05/17 00:15:46;;;;;;;4.88;3.70;;;11.50;99.90;;;;;;2064566;28;20094;-67
2021/05/17 00:16:47;;;;;;;4.57;3.60;;;11.50;99.90;;;;;;2064198;28;20084;-67
2021/05/17 00:17:48;;;;;;;4.55;3.85;;;11.50;99.90;;;;;;2064224;28;20477;-67
2021/05/17 00:18:49;;;;;;;3.75;3.45;;;11.50;99.90;;;;;;2064171;28;20076;-67
2021/05/17 00:19:50;;;;;;;4.88;3.97;;;11.50;99.90;;;;;;2063431;28;20031;-67
2021/05/17 00:20:51;;;;;;;7.18;4.30;;;11.50;99.90;;;;;;2064108;28;20026;-67
2021/05/17 00:21:52;;;;;;;5.93;3.97;;;11.50;99.90;;;;;;2064485;28;20034;-67
2021/05/17 00:22:53;;;;;;;4.50;3.80;;;11.50;99.90;;;;;;2062839;28;20034;-67
2021/05/17 00:23:54;;;;;;;5.35;4.05;;;11.50;99.90;;;;;;2063987;28;20023;-67
2021/05/17 00:24:55;;;;;;;7.60;3.42;;;11.50;99.90;;;;;;2064220;28;20033;-67
2021/05/17 00:25:56;;;;;;;5.20;3.95;;;11.50;99.90;;;;;;2064361;28;20036;-67
2021/05/17 00:26:57;;;;;;;5.43;3.47;;;11.50;99.90;;;;;;2064372;28;20476;-67
2021/05/17 00:27:58;;;;;;;3.95;3.42;;;11.50;99.90;;;;;;2064060;28;20031;-67
2021/05/17 00:28:59;;;;;;;6.57;3.45;;;11.50;99.90;;;;;;2063969;28;20046;-67
2021/05/17 00:30:00;;;;;;;3.67;3.28;;;11.50;99.90;;;;;;2064126;28;20032;-67
2021/05/17 00:31:00;;;;;;;3.50;3.20;;;11.50;99.90;;;;;;2064004;28;20458;-68
2021/05/17 00:32:01;;;;;;;4.38;3.60;;;11.50;99.90;;;;;;2063989;28;20022;-67
2021/05/17 00:33:02;;;;;;;4.95;3.33;;;11.50;99.90;;;;;;2063192;28;20058;-67
2021/05/17 00:34:04;;;;;;;4.55;3.25;;;11.50;99.90;;;;;;2063395;28;20684;-67
2021/05/17 00:35:05;;;;;;;4.38;3.50;;;11.50;99.90;;;;;;2064290;28;20014;-68
2021/05/17 00:36:06;;;;;;;5.65;3.50;;;11.50;99.90;;;;;;2063919;28;20076;-67
2021/05/17 00:37:07;;;;;;;6.53;3.30;;;11.50;99.90;;;;;;2063676;28;20026;-67
2021/05/17 00:38:08;;;;;;;3.60;3.05;;;11.50;99.90;;;;;;2063966;28;20105;-67
2021/05/17 00:39:11;;;;;;;3.97;3.10;;;11.50;99.90;;;;;;2064110;28;20026;-67
2021/05/17 00:40:13;;;;;;;3.30;3.00;;;11.50;99.90;;;;;;2064008;28;20057;-67
2021/05/17 00:41:15;;;;;;;6.20;3.10;;;11.50;99.90;;;;;;2063844;28;20019;-67
2021/05/17 00:42:16;;;;;;;3.28;3.00;;;11.50;99.90;;;;;;2063493;28;20553;-67
2021/05/17 00:43:24;;;;;;;6.70;3.55;;;11.50;99.90;;;;;;2064129;28;20022;-67
2021/05/17 00:44:27;;;;;;;5.22;3.10;;;11.50;99.90;;;;;;2064289;28;20023;-67
2021/05/17 00:45:28;;;;;;;4.82;3.25;;;11.50;99.90;;;;;;2063978;28;20025;-67
2021/05/17 00:46:31;;;;;;;7.10;3.42;;;11.50;99.90;;;;;;2064161;28;20038;-67
2021/05/17 00:47:36;;;;;;;5.45;3.47;;;11.50;99.90;;;;;;2063875;28;20037;-67
2021/05/17 00:48:38;;;;;;;5.10;3.63;;;11.50;99.90;;;;;;2069496;28;20022;-67
2021/05/17 00:49:41;;;;;;;6.43;3.45;;;11.50;99.90;;;;;;2071151;28;20030;-67
2021/05/17 00:50:41;;;;;;;3.42;3.10;;;11.60;99.90;;;;;;2063203;28;20031;-67
2021/05/17 00:51:42;;;;;;;5.28;3.40;;;11.60;99.90;;;;;;2063940;28;20068;-67
2021/05/17 00:52:44;;;;;;;4.68;3.58;;;11.60;99.90;;;;;;2063328;28;20077;-67
2021/05/17 00:53:45;;;;;;;5.65;3.78;;;11.60;99.90;;;;;;2063968;28;20478;-67
2021/05/17 00:54:46;;;;;;;4.72;3.38;;;11.60;99.90;;;;;;2064231;28;20041;-67
2021/05/17 00:55:47;;;;;;;5.38;3.28;;;11.60;99.90;;;;;;2063832;28;20054;-67
2021/05/17 00:56:47;;;;;;;3.88;3.10;;;11.60;99.90;;;;;;2063979;28;20373;-67
2021/05/17 00:57:48;;;;;;;3.47;3.10;;;11.60;99.90;;;;;;2063996;28;20037;-68
2021/05/17 00:58:49;;;;;;;6.13;3.47;;;11.60;99.90;;;;;;2063841;28;20034;-67
2021/05/17 00:59:50;;;;;;;6.90;3.95;;;11.60;99.90;;;;;;2064088;28;20414;-68
2021/05/17 01:00:50;;;;;;;4.60;3.15;;;11.60;99.90;;;;;;2064119;28;20039;-67
2021/05/17 01:01:51;;;;;;;6.13;3.15;;;11.60;99.90;;;;;;2063982;28;20029;-67
2021/05/17 01:02:52;;;;;;;4.35;3.05;;;11.70;99.90;;;;;;2063215;28;20149;-67
2021/05/17 01:03:53;;;;;;;2.95;2.55;;;11.70;99.90;;;;;;2063567;28;20050;-67
2021/05/17 01:04:53;;;;;;;5.30;3.75;;;11.70;99.90;;;;;;2060697;28;20105;-67
2021/05/17 01:05:55;;;;;;;3.22;2.92;;;11.70;99.90;;;;;;2064173;28;20027;-67
2021/05/17 01:06:59;;;;;;;4.43;3.35;;;11.70;99.90;;;;;;2063739;28;20205;-67
2021/05/17 01:08:02;;;;;;;3.40;3.05;;;11.70;99.90;;;;;;2063884;28;20117;-67
2021/05/17 01:09:08;;;;;;;4.90;2.90;;;11.70;99.90;;;;;;2063895;28;20037;-67
2021/05/17 01:10:09;;;;;;;5.88;2.95;;;11.70;99.90;;;;;;2063776;28;20458;-67
2021/05/17 01:11:11;;;;;;;4.88;3.00;;;11.70;99.90;;;;;;2063829;28;20339;-67
2021/05/17 01:12:15;;;;;;;3.22;2.90;;;11.70;99.90;;;;;;2063554;28;20057;-67
2021/05/17 01:13:16;;;;;;;3.65;2.88;;;11.70;99.90;;;;;;2063284;28;20034;-67
2021/05/17 01:14:17;;;;;;;2.85;2.53;;;11.70;99.90;;;;;;2063882;28;20030;-67
2021/05/17 01:15:19;;;;;;;3.63;2.88;;;11.70;99.90;;;;;;2063954;28;20023;-67
2021/05/17 01:16:20;;;;;;;2.75;2.50;;;11.70;99.90;;;;;;2064175;28;20084;-67
2021/05/17 01:17:22;;;;;;;5.65;3.25;;;11.70;99.90;;;;;;2063947;28;20654;-67
2021/05/17 01:18:23;;;;;;;4.80;2.67;;;11.70;99.90;;;;;;2068616;28;20022;-67
2021/05/17 01:19:38;;;;;;;4.13;2.88;;;11.70;99.90;;;;;;2069713;28;20033;-67
2021/05/17 01:20:40;;;;;;;3.95;3.20;;;11.80;99.90;;;;;;2068177;28;20980;-67
2021/05/17 01:21:45;;;;;;;4.25;3.08;;;11.80;99.90;;;;;;2071031;28;20026;-67
2021/05/17 01:22:53;;;;;;;3.00;2.72;;;11.80;99.90;;;;;;2067082;28;20054;-68
2021/05/17 01:23:57;;;;;;;4.22;2.70;;;11.80;99.90;;;;;;2063777;28;20041;-67
2021/05/17 01:24:58;;;;;;;3.97;2.90;;;11.80;99.90;;;;;;2063923;28;20030;-67
2021/05/17 01:26:01;;;;;;;3.70;2.95;;;11.80;99.90;;;;;;2063978;28;20053;-67
2021/05/17 01:27:02;;;;;;;5.38;2.80;;;11.80;99.90;;;;;;2063642;28;20838;-67
2021/05/17 01:28:03;;;;;;;2.90;2.55;;;11.80;99.90;;;;;;2063658;28;20027;-67
2021/05/17 01:29:08;;;;;;;2.88;2.45;;;11.80;99.90;;;;;;2063578;28;20477;-67
2021/05/17 01:30:09;;;;;;;3.40;2.50;;;11.80;99.90;;;;;;2063826;28;20034;-67
2021/05/17 01:31:11;;;;;;;3.30;2.35;;;11.80;99.90;;;;;;2063526;28;20085;-67
2021/05/17 01:32:12;;;;;;;4.05;2.65;;;11.90;99.90;;;;;;2062584;28;20056;-67
2021/05/17 01:33:13;;;;;;;2.97;2.75;;;11.90;99.90;;;;;;2062464;28;20035;-67
2021/05/17 01:34:14;;;;;;;3.08;2.67;;;11.90;99.90;;;;;;2063309;28;20030;-67
2021/05/17 01:35:16;;;;;;;3.17;2.53;;;11.90;99.90;;;;;;2063152;28;20022;-67
2021/05/17 01:36:18;;;;;;;3.53;2.70;;;11.90;99.90;;;;;;2063853;28;20367;-67
2021/05/17 01:37:22;;;;;;;4.57;2.72;;;11.90;99.90;;;;;;2063414;28;20500;-67
2021/05/17 01:38:24;;;;;;;4.60;2.92;;;11.90;99.90;;;;;;2063679;28;20382;-67
2021/05/17 01:39:25;;;;;;;5.07;2.92;;;11.90;99.90;;;;;;2063413;28;20042;-67
2021/05/17 01:40:28;;;;;;;3.70;2.58;;;11.90;99.90;;;;;;2063947;28;20102;-67
2021/05/17 01:41:29;;;;;;;2.33;2.13;;;11.90;99.90;;;;;;2063314;28;20125;-67
2021/05/17 01:42:32;;;;;;;3.38;2.78;;;11.90;99.90;;;;;;2063121;28;20084;-67
2021/05/17 01:43:33;;;;;;;2.88;2.65;;;11.90;99.90;;;;;;2063448;28;20131;-67
2021/05/17 01:44:38;;;;;;;3.88;2.75;;;11.90;99.90;;;;;;2063877;28;20109;-67
2021/05/17 01:45:39;;;;;;;3.00;2.17;;;11.90;99.90;;;;;;2063274;28;20062;-67
2021/05/17 01:46:43;;;;;;;3.53;2.47;;;11.90;99.90;;;;;;2062368;28;20038;-67
2021/05/17 01:47:44;;;;;;;3.05;2.50;;;11.80;99.90;;;;;;2061767;28;20053;-67
2021/05/17 01:48:45;;;;;;;4.43;2.88;;;11.90;99.90;;;;;;2063123;28;20054;-67
2021/05/17 01:49:48;;;;;;;3.63;2.50;;;11.90;99.90;;;;;;2066688;28;20109;-67
2021/05/17 01:50:49;;;;;;;4.68;2.60;;;11.90;99.90;;;;;;2055963;28;20033;-67
2021/05/17 01:51:50;;;;;;;3.17;2.45;;;11.90;99.90;;;;;;2068053;28;20042;-67
2021/05/17 01:52:52;;;;;;;3.20;2.30;;;11.90;99.90;;;;;;2062867;28;20077;-67
2021/05/17 01:53:53;;;;;;;4.78;2.80;;;11.90;99.90;;;;;;2063372;28;20038;-67
2021/05/17 01:54:55;;;;;;;3.85;2.70;;;12.00;99.90;;;;;;2064475;28;20093;-67
2021/05/17 01:55:55;;;;;;;3.40;2.67;;;12.00;99.90;;;;;;2063860;28;20479;-67
2021/05/17 01:56:57;;;;;;;3.95;2.40;;;12.00;99.90;;;;;;2064860;28;20375;-67
2021/05/17 01:58:24;;;;;;;3.13;2.17;;;12.00;99.90;;;;;;2070870;28;20022;-67
2021/05/17 01:59:32;;;;;;;4.15;2.50;;;11.90;99.90;;;;;;2060477;28;20035;-67
2021/05/17 02:00:33;;;;;;;6.47;2.83;;;12.00;99.90;;;;;;2063583;28;20022;-67
2021/05/17 02:01:34;;;;;;;6.03;2.38;;;12.00;99.90;;;;;;2064766;28;20023;-67
2021/05/17 02:02:36;;;;;;;4.43;2.53;;;12.00;99.90;;;;;;2064443;28;20080;-67
2021/05/17 02:03:39;;;;;;;2.35;2.13;;;12.00;99.90;;;;;;2064607;28;20045;-67
2021/05/17 02:04:40;;;;;;;3.67;2.40;;;12.00;99.90;;;;;;2064727;28;20442;-67
2021/05/17 02:05:41;;;;;;;3.58;2.35;;;12.00;99.90;;;;;;2064953;28;20148;-67
2021/05/17 02:06:44;;;;;;;3.05;2.45;;;12.00;99.90;;;;;;2064130;28;20022;-68
2021/05/17 02:07:44;;;;;;;2.60;2.38;;;12.00;99.90;;;;;;2064200;28;20030;-67
2021/05/17 02:08:48;;;;;;;4.60;2.50;;;12.00;99.90;;;;;;2064863;28;20082;-67
2021/05/17 02:09:52;;;;;;;4.90;2.70;;;12.00;99.90;;;;;;2063699;28;20102;-67
2021/05/17 02:10:53;;;;;;;4.90;2.65;;;12.00;99.90;;;;;;2072195;28;20366;-67
2021/05/17 02:11:54;;;;;;;5.40;2.70;;;12.00;99.90;;;;;;2064019;28;20019;-67
2021/05/17 02:12:57;;;;;;;4.05;2.47;;;12.00;99.90;;;;;;2065739;28;20185;-67
2021/05/17 02:13:59;;;;;;;3.67;2.70;;;12.00;99.90;;;;;;2064229;28;20034;-67
2021/05/17 02:15:00;;;;;;;6.60;2.40;;;12.00;99.90;;;;;;2064815;28;20036;-67
2021/05/17 02:16:01;;;;;;;4.65;2.45;;;12.10;99.90;;;;;;2064714;28;20022;-67
2021/05/17 02:17:02;;;;;;;3.15;2.50;;;12.10;99.90;;;;;;2064792;28;20030;-67
2021/05/17 02:18:05;;;;;;;4.70;2.30;;;12.10;99.90;;;;;;2064638;28;20041;-67
2021/05/17 02:19:06;;;;;;;3.42;2.40;;;12.10;99.90;;;;;;2064586;28;20382;-67
2021/05/17 02:20:07;;;;;;;5.10;2.65;;;12.10;99.90;;;;;;2064789;28;20049;-67
2021/05/17 02:21:10;;;;;;;6.20;2.90;;;12.10;99.90;;;;;;2064426;28;20026;-67
2021/05/17 02:22:10;;;;;;;4.10;2.45;;;12.10;99.90;;;;;;2064540;28;20053;-67
2021/05/17 02:23:15;;;;;;;6.13;2.53;;;12.10;99.90;;;;;;2064598;28;20027;-67
2021/05/17 02:24:16;;;;;;;3.38;2.30;;;12.10;99.90;;;;;;2064199;28;20470;-67
2021/05/17 02:25:17;;;;;;;3.35;2.28;;;12.10;99.90;;;;;;2064689;28;20451;-67
2021/05/17 02:26:18;;;;;;;5.07;2.40;;;12.10;99.90;;;;;;2064845;28;20042;-67
2021/05/17 02:27:18;;;;;;;3.50;2.58;;;12.20;99.90;;;;;;2064656;28;20108;-67
2021/05/17 02:28:19;;;;;;;2.95;2.22;;;12.10;99.90;;;;;;2064736;28;20030;-67
2021/05/17 02:29:21;;;;;;;4.80;2.38;;;12.10;99.90;;;;;;2064679;28;20078;-67
2021/05/17 02:30:22;;;;;;;5.43;2.42;;;12.20;99.90;;;;;;2064597;28;20018;-68
2021/05/17 02:31:23;;;;;;;3.38;2.30;;;12.20;99.90;;;;;;2064691;28;20034;-68
2021/05/17 02:32:25;;;;;;;2.70;2.05;;;12.20;99.90;;;;;;2063967;28;20493;-67
2021/05/17 02:33:25;;;;;;;5.20;2.55;;;12.20;99.90;;;;;;2064615;28;20019;-67
2021/05/17 02:34:26;;;;;;;2.90;2.20;;;12.20;99.90;;;;;;2064736;28;20032;-68
2021/05/17 02:35:27;;;;;;;4.85;2.42;;;12.20;99.90;;;;;;2064848;28;20465;-68
2021/05/17 02:36:28;;;;;;;3.72;2.33;;;12.20;99.90;;;;;;2064664;28;20478;-67
2021/05/17 02:37:29;;;;;;;3.78;2.22;;;12.20;99.90;;;;;;2063774;28;20462;-67
2021/05/17 02:38:30;;;;;;;4.18;2.35;;;12.20;99.90;;;;;;2064448;28;20664;-67
2021/05/17 02:39:31;;;;;;;4.45;2.20;;;12.20;99.90;;;;;;2064924;28;20450;-67
2021/05/17 02:40:32;;;;;;;2.75;2.22;;;12.20;99.90;;;;;;2075965;28;20116;-67
2021/05/17 02:41:36;;;;;;;5.32;2.65;;;12.20;99.90;;;;;;2080538;28;20048;-67
2021/05/17 02:42:41;;;;;;;3.30;2.10;;;12.20;99.90;;;;;;2063868;28;20027;-67
2021/05/17 02:43:41;;;;;;;3.50;2.25;;;12.20;99.90;;;;;;2064563;28;20077;-67
2021/05/17 02:44:42;;;;;;;5.07;2.45;;;12.20;99.90;;;;;;2064570;28;20030;-67
2021/05/17 02:45:43;;;;;;;3.38;1.90;;;12.20;99.90;;;;;;2064317;28;20084;-67
2021/05/17 02:46:43;;;;;;;4.43;2.13;;;12.20;99.90;;;;;;2064242;28;20023;-67
2021/05/17 02:47:45;;;;;;;7.25;2.53;;;12.30;99.90;;;;;;2064639;28;20026;-67
2021/05/17 02:48:46;;;;;;;5.18;2.25;;;12.30;99.90;;;;;;2063848;28;20528;-67
2021/05/17 02:49:48;;;;;;;2.90;2.03;;;12.20;99.90;;;;;;2064371;28;20466;-67
2021/05/17 02:50:48;;;;;;;2.33;2.13;;;12.20;99.90;;;;;;2059105;28;20019;-67
2021/05/17 02:51:49;;;;;;;2.72;2.17;;;12.20;99.90;;;;;;2061441;28;20036;-68
2021/05/17 02:52:50;;;;;;;3.45;2.28;;;12.20;99.90;;;;;;2064137;28;20034;-67
2021/05/17 02:53:50;;;;;;;3.67;1.98;;;12.20;99.90;;;;;;2064392;28;20026;-67
2021/05/17 02:55:13;;;;;;;4.20;2.28;;;12.20;99.90;;;;;;2064561;28;20030;-67
2021/05/17 02:56:15;;;;;;;3.15;1.67;;;12.20;99.90;;;;;;2064682;28;20028;-67
2021/05/17 02:57:25;;;;;;;4.95;2.00;;;12.20;99.90;;;;;;2064566;28;20374;-67
2021/05/17 02:58:31;;;;;;;4.57;2.75;;;12.20;99.90;;;;;;2064584;28;20027;-67
2021/05/17 03:00:00;;;;;;;6.28;2.08;;;12.20;99.90;;;;;;2064840;28;20029;-67
2021/05/17 03:01:25;;;;;;;2.40;2.08;;;12.20;99.90;;;;;;2064646;28;20492;-67
2021/05/17 03:02:30;;;;;;;3.63;2.30;;;12.10;99.90;;;;;;2062818;28;20042;-67
2021/05/17 03:03:55;;;;;;;4.05;2.17;;;12.10;99.90;;;;;;2063478;28;20034;-67
2021/05/17 03:04:57;;;;;;;3.70;2.25;;;12.10;99.90;;;;;;2062281;28;20063;-67
2021/05/17 03:06:06;;;;;;;3.97;2.53;;;12.10;99.90;;;;;;2063616;28;20030;-67
2021/05/17 03:07:10;;;;;;;5.60;2.60;;;12.10;99.90;;;;;;2056020;28;20065;-67
2021/05/17 03:08:13;;;;;;;3.65;2.10;;;12.20;99.90;;;;;;2059548;28;20489;-67
2021/05/17 03:09:15;;;;;;;4.00;2.30;;;12.10;99.90;;;;;;2063856;28;20042;-67
2021/05/17 03:10:16;;;;;;;4.43;2.03;;;12.10;99.90;;;;;;2063413;28;20027;-67
2021/05/17 03:11:21;;;;;;;5.43;2.40;;;12.20;99.90;;;;;;2062478;28;20492;-67
2021/05/17 03:12:22;;;;;;;4.40;2.22;;;12.20;99.90;;;;;;2062937;28;20023;-67
2021/05/17 03:13:25;;;;;;;3.33;2.40;;;12.20;99.90;;;;;;2063118;28;20027;-67
2021/05/17 03:14:29;;;;;;;5.30;2.50;;;12.20;99.90;;;;;;2063174;28;20109;-67
2021/05/17 03:15:32;;;;;;;2.78;2.17;;;12.20;99.90;;;;;;2063404;28;20466;-67
2021/05/17 03:16:33;;;;;;;3.08;2.08;;;12.20;99.90;;;;;;2063554;28;20065;-67
2021/05/17 03:17:36;;;;;;;2.58;2.30;;;12.20;99.90;;;;;;2063023;28;20062;-67
2021/05/17 03:18:37;;;;;;;2.20;2.00;;;12.20;99.90;;;;;;2062665;28;20117;-67
2021/05/17 03:19:38;;;;;;;4.03;2.05;;;12.20;99.90;;;;;;2063805;28;20026;-67
2021/05/17 03:20:40;;;;;;;4.30;2.20;;;12.20;99.90;;;;;;2069985;28;20026;-68
2021/05/17 03:21:41;;;;;;;4.45;2.15;;;12.20;99.90;;;;;;2055280;28;20382;-68
2021/05/17 03:22:42;;;;;;;2.63;2.03;;;12.20;99.90;;;;;;2057964;28;20023;-67
2021/05/17 03:23:43;;;;;;;3.65;2.00;;;12.20;99.90;;;;;;2062398;28;20054;-67
2021/05/17 03:24:46;;;;;;;2.83;2.00;;;12.20;99.90;;;;;;2055971;28;20027;-67
2021/05/17 03:25:48;;;;;;;5.72;1.80;;;12.20;99.90;;;;;;2055133;28;20038;-67
2021/05/17 03:26:51;;;;;;;3.50;2.45;;;12.20;99.90;;;;;;2056865;28;21209;-67
2021/05/17 03:27:52;;;;;;;2.88;2.10;;;12.20;99.90;;;;;;2063288;28;20474;-67
2021/05/17 03:28:53;;;;;;;2.90;2.22;;;12.10;99.90;;;;;;2071385;28;20108;-67
2021/05/17 03:29:55;;;;;;;4.05;2.15;;;12.20;99.90;;;;;;2070258;28;20077;-67
2021/05/17 03:30:55;;;;;;;2.55;2.35;;;12.20;99.90;;;;;;2063340;28;20426;-67
2021/05/17 03:31:56;;;;;;;2.70;2.10;;;12.20;99.90;;;;;;2063264;28;20100;-67
2021/05/17 03:32:56;;;;;;;2.40;2.20;;;12.10;99.90;;;;;;2061306;28;20046;-68
2021/05/17 03:33:58;;;;;;;2.20;2.08;;;12.20;99.90;;;;;;2057970;28;20363;-68
2021/05/17 03:34:58;;;;;;;3.13;2.30;;;12.20;99.90;;;;;;2063437;28;20030;-67
2021/05/17 03:35:59;;;;;;;5.03;2.15;;;12.20;99.90;;;;;;2062968;28;20035;-67
2021/05/17 03:36:59;;;;;;;6.07;2.50;;;12.20;99.90;;;;;;2063417;28;20046;-67
2021/05/17 03:38:00;;;;;;;8.10;2.28;;;12.20;99.90;;;;;;2063204;28;20065;-68
2021/05/17 03:39:00;;;;;;;2.88;2.53;;;12.20;99.90;;;;;;2063307;28;20030;-67
2021/05/17 03:40:02;;;;;;;6.78;2.72;;;12.20;99.90;;;;;;2063129;28;20102;-67
2021/05/17 03:41:02;;;;;;;4.72;2.28;;;12.20;99.90;;;;;;2062564;28;20027;-67
2021/05/17 03:42:03;;;;;;;3.70;2.30;;;12.20;99.90;;;;;;2063275;28;20018;-67
2021/05/17 03:43:04;;;;;;;2.63;2.35;;;12.20;99.90;;;;;;2062706;28;20046;-67
2021/05/17 03:44:05;;;;;;;3.22;1.90;;;12.20;99.90;;;;;;2063282;28;20113;-67
2021/05/17 03:45:07;;;;;;;2.72;2.30;;;12.20;99.90;;;;;;2063282;28;20026;-67
2021/05/17 03:46:08;;;;;;;2.97;2.45;;;12.20;99.90;;;;;;2063015;28;20053;-67
2021/05/17 03:47:09;;;;;;;3.63;2.45;;;12.20;99.90;;;;;;2063327;28;20042;-67
2021/05/17 03:48:09;;;;;;;2.83;2.47;;;12.20;99.90;;;;;;2063110;28;20037;-67
2021/05/17 03:49:10;;;;;;;3.63;2.53;;;12.20;99.90;;;;;;2063008;28;20417;-67
2021/05/17 03:50:12;;;;;;;3.30;2.50;;;12.20;99.90;;;;;;2063120;28;20415;-67
2021/05/17 03:51:13;;;;;;;3.65;2.67;;;12.20;99.90;;;;;;2062673;28;20030;-68
2021/05/17 03:52:14;;;;;;;4.28;2.58;;;12.20;99.90;;;;;;2062819;28;20022;-68
2021/05/17 03:53:14;;;;;;;2.42;2.10;;;12.20;99.90;;;;;;2062140;28;20026;-68
2021/05/17 03:54:15;;;;;;;2.75;2.55;;;12.20;99.90;;;;;;2062446;28;20588;-68
2021/05/17 03:55:15;;;;;;;3.33;2.42;;;12.20;99.90;;;;;;2062604;28;20101;-67
2021/05/17 03:56:16;;;;;;;4.80;2.72;;;12.20;99.90;;;;;;2062902;28;20023;-67
2021/05/17 03:57:17;;;;;;;4.80;2.15;;;12.20;99.90;;;;;;2063413;28;20041;-67
2021/05/17 03:58:17;;;;;;;2.63;2.40;;;12.20;99.90;;;;;;2063525;28;20064;-67
2021/05/17 03:59:18;;;;;;;3.72;2.60;;;12.20;99.90;;;;;;2064578;28;20022;-67
2021/05/17 04:00:19;;;;;;;5.30;3.08;;;12.20;99.90;;;;;;2064533;28;20062;-68
2021/05/17 04:01:22;;;;;;;5.10;2.35;;;12.20;99.90;;;;;;2064440;28;20056;-68
2021/05/17 04:02:24;;;;;;;2.97;2.03;;;12.20;99.90;;;;;;2063843;28;20022;-67
2021/05/17 04:03:25;;;;;;;3.72;2.50;;;12.20;99.90;;;;;;2064411;28;20031;-68
2021/05/17 04:04:27;;;;;;;2.90;2.00;;;12.20;99.90;;;;;;2064547;28;20034;-68
2021/05/17 04:05:39;;;;;;;2.85;2.00;;;12.20;99.90;;;;;;2064489;28;20445;-67
2021/05/17 04:07:03;;;;;;;3.10;2.13;;;12.20;99.90;;;;;;2064381;28;20056;-67
2021/05/17 04:13:22;;;;;;;5.18;2.05;;;12.20;99.90;;;;;;2064222;28;20038;-67
2021/05/17 04:14:22;;;;;;;4.30;2.05;;;12.20;99.90;;;;;;2063568;28;20110;-67
2021/05/17 04:15:23;;;;;;;3.75;2.08;;;12.20;99.90;;;;;;2063772;28;20105;-67
2021/05/17 04:16:23;;;;;;;5.03;2.42;;;12.20;99.90;;;;;;2064085;28;20033;-67
2021/05/17 04:17:24;;;;;;;3.05;2.40;;;12.20;99.90;;;;;;2064762;28;20116;-67
2021/05/17 04:18:27;;;;;;;3.78;2.30;;;12.20;99.90;;;;;;2064297;28;20378;-67
2021/05/17 04:19:28;;;;;;;3.75;2.17;;;12.30;99.90;;;;;;2064605;28;20366;-67
2021/05/17 04:20:29;;;;;;;5.10;2.13;;;12.30;99.90;;;;;;2064357;28;20037;-67
2021/05/17 04:21:29;;;;;;;7.03;2.58;;;12.30;99.90;;;;;;2064382;28;20046;-67
2021/05/17 04:22:30;;;;;;;7.72;2.60;;;12.30;99.90;;;;;;2063239;28;20109;-67
2021/05/17 04:23:31;;;;;;;2.58;1.90;;;12.40;99.90;;;;;;2064245;28;20037;-67
2021/05/17 04:24:32;;;;;;;3.85;2.17;;;12.30;99.90;;;;;;2064205;28;20057;-67
2021/05/17 04:25:32;;;;;;;2.78;1.83;;;12.40;99.90;;;;;;2064602;28;20033;-67
2021/05/17 04:26:33;;;;;;;4.40;2.40;;;12.40;99.90;;;;;;2064215;28;20100;-67
2021/05/17 04:27:34;;;;;;;2.47;1.90;;;12.40;99.90;;;;;;2064581;28;20062;-67
2021/05/17 04:28:34;;;;;;;4.20;1.90;;;12.40;99.90;;;;;;2064493;28;20036;-67
2021/05/17 04:29:35;;;;;;;2.50;1.77;;;12.40;99.90;;;;;;2064434;28;20113;-67
2021/05/17 04:30:36;;;;;;;4.07;1.98;;;12.40;99.90;;;;;;2064066;28;20081;-67
2021/05/17 04:31:36;;;;;;;5.57;2.25;;;12.40;99.90;;;;;;2064441;28;20062;-67
2021/05/17 04:32:37;;;;;;;4.55;2.17;;;12.40;99.90;;;;;;2063360;28;20034;-67
2021/05/17 04:33:38;;;;;;;2.38;2.10;;;12.40;99.90;;;;;;2064149;28;20081;-67
2021/05/17 04:34:38;;;;;;;2.33;1.75;;;12.50;99.90;;;;;;2064231;28;20073;-67
2021/05/17 04:35:39;;;;;;;5.28;2.28;;;12.50;99.90;;;;;;2064115;28;20034;-67
2021/05/17 04:36:39;;;;;;;3.15;1.90;;;12.50;99.90;;;;;;2063868;28;20033;-67
2021/05/17 04:37:40;;;;;;;3.90;2.00;;;12.50;99.90;;;;;;2064113;28;20474;-67
2021/05/17 04:38:41;;;;;;;3.53;2.10;;;12.50;99.90;;;;;;2063916;28;20026;-67
2021/05/17 04:39:41;;;;;;;2.25;1.92;;;12.50;99.90;;;;;;2061673;28;20030;-67
2021/05/17 04:40:44;;;;;;;3.05;1.70;;;12.50;99.90;;;;;;2062671;28;20030;-67
2021/05/17 04:41:44;;;;;;;2.78;1.70;;;12.50;99.90;;;;;;2064534;28;20022;-67
2021/05/17 04:42:45;;;;;;;2.85;2.00;;;12.50;99.90;;;;;;2063567;28;20117;-67
2021/05/17 04:43:46;;;;;;;2.13;1.75;;;12.60;99.90;;;;;;2064389;28;20475;-67
2021/05/17 04:44:47;;;;;;;3.08;1.88;;;12.60;99.90;;;;;;2064172;28;20018;-67
2021/05/17 04:45:47;;;;;;;3.25;1.88;;;12.60;99.90;;;;;;2064144;28;20033;-67
2021/05/17 04:46:48;;;;;;;2.90;1.77;;;12.60;99.90;;;;;;2064444;28;20034;-67
2021/05/17 04:47:49;;;;;;;3.00;2.10;;;12.60;99.90;;;;;;2064634;28;20518;-67
2021/05/17 04:48:49;;;;;;;3.10;2.08;;;12.60;99.90;;;;;;2063851;28;20521;-67
2021/05/17 04:49:50;;;;;;;2.67;2.17;;;12.70;99.90;;;;;;2064211;28;20482;-67
2021/05/17 04:50:51;;;;;;;4.45;2.15;;;12.70;99.90;;;;;;2063417;28;20026;-67
2021/05/17 04:51:52;;;;;;;2.45;1.90;;;12.70;99.90;;;;;;2064147;28;20045;-67
2021/05/17 04:52:52;;;;;;;2.33;2.13;;;12.70;99.90;;;;;;2059224;28;20451;-67
2021/05/17 04:53:53;;;;;;;2.83;1.92;;;12.70;99.90;;;;;;2063786;28;20116;-67
2021/05/17 04:54:53;;;;;;;3.92;2.17;;;12.80;99.90;;;;;;2063993;28;20065;-67
2021/05/17 04:55:54;;;;;;;4.70;2.33;;;12.80;99.90;;;;;;2063758;28;20046;-67
2021/05/17 04:56:54;;;;;;;3.65;2.03;;;12.80;99.90;;;;;;2063717;28;20069;-68
2021/05/17 04:57:55;;;;;;;3.58;1.70;;;12.80;99.90;;;;;;2066663;28;20030;-67
2021/05/17 04:58:55;;;;;;;2.35;1.80;;;12.80;99.90;;;;;;2063686;28;20022;-67
2021/05/17 04:59:56;;;;;;;4.72;2.00;;;12.80;99.90;;;;;;2063719;28;20045;-67
2021/05/17 05:00:57;;;;;;;1.90;1.63;;;12.80;99.90;;;;;;2062391;28;20382;-67
2021/05/17 05:01:57;;;;;;;5.53;1.80;;;12.80;99.90;;;;;;2065682;28;20025;-67
2021/05/17 05:02:58;;;;;;;4.20;2.35;;;12.80;99.90;;;;;;2062987;28;20025;-68
2021/05/17 05:03:58;;;;;;;3.72;1.98;;;12.80;99.90;;;;;;2063729;28;20022;-68
2021/05/17 05:04:59;;;;;;;4.07;1.85;;;12.90;99.90;;;;;;2063754;28;20026;-68
2021/05/17 05:06:01;;;;;;;3.15;1.70;;;12.80;99.90;;;;;;2063959;28;20026;-67
2021/05/17 05:07:01;;;;;;;2.72;2.00;;;12.90;99.90;;;;;;2063844;28;20038;-67
2021/05/17 05:08:02;;;;;;;3.35;2.05;;;12.90;99.90;;;;;;2066054;28;20026;-67
2021/05/17 05:09:03;;;;;;;4.78;1.98;;;12.90;99.90;;;;;;2063350;28;20018;-68
2021/05/17 05:10:05;;;;;;;3.40;1.85;;;12.90;99.90;;;;;;2063851;28;20026;-67
2021/05/17 05:11:05;;;;;;;5.32;1.85;;;12.90;99.90;;;;;;2063929;28;20520;-68
2021/05/17 05:12:06;;;;;;;3.88;1.80;;;12.90;99.90;;;;;;2063579;28;20425;-68
2021/05/17 05:13:07;;;;;;;2.97;1.85;;;12.90;99.90;;;;;;2063304;28;20030;-68
2021/05/17 05:14:07;;;;;;;3.83;2.05;;;12.90;99.90;;;;;;2063690;28;20060;-67
2021/05/17 05:15:08;;;;;;;4.72;2.05;;;12.90;99.90;;;;;;2063974;28;20109;-67
2021/05/17 05:16:09;;;;;;;3.30;2.30;;;12.90;99.90;;;;;;2062313;28;20479;-67
2021/05/17 05:17:10;;;;;;;3.33;1.95;;;12.90;99.90;;;;;;2063785;28;20022;-68
2021/05/17 05:18:11;;;;;;;3.90;2.00;;;12.90;99.90;;;;;;2063120;28;20027;-67
2021/05/17 05:19:11;;;;;;;3.13;2.25;;;12.90;99.90;;;;;;2063990;28;20113;-67
2021/05/17 05:20:12;;;;;;;3.67;1.95;;;12.90;99.90;;;;;;2065862;28;20030;-67
2021/05/17 05:21:13;;;;;;;3.75;1.95;;;12.90;99.90;;;;;;2063950;28;20093;-67
2021/05/17 05:22:13;;;;;;;3.20;1.95;;;13.00;99.90;;;;;;2062951;28;20620;-67
2021/05/17 05:23:16;;;;;;;6.45;2.25;;;13.00;99.90;;;;;;2063658;28;20026;-67
2021/05/17 05:24:16;;;;;;;5.15;2.45;;;13.00;99.90;;;;;;2063574;28;20072;-67
2021/05/17 05:25:19;;;;;;;4.18;2.17;;;13.00;99.90;;;;;;2063604;28;20068;-68
2021/05/17 05:32:27;;;;;;;2.97;1.93;;;13.00;99.90;;;;;;2056003;28;20038;-67
2021/05/17 05:33:27;;;;;;;;;;;13.00;99.90;;;;;;2062791;28;20304;-67
2021/05/17 05:34:29;;;;;;;2.22;1.90;;;12.90;99.90;;;;;;2062250;28;19910;-68